sensor_id;sensor_type;location;lat;lon;timestamp;P1;durP1;ratioP1;P2;durP2;ratioP2
27778;SDS011;30234;48.090;11.464;2022-08-02T00:01:25;1.10;;;1.00;;
27778;SDS011;30234;48.090;11.464;2022-08-02T00:05:26;1.15;;;1.05;;
27778;SDS011;30234;48.090;11.464;2022-08-02T00:09:27;3.95;;;1.20;;
27778;SDS011;30234;48.090;11.464;2022-08-02T00:13:28;1.40;;;1.30;;
27778;SDS011;30234;48.090;11.464;2022-08-02T00:17:29;0.80;;;0.80;;
27778;SDS011;30234;48.090;11.464;2022-08-02T00:21:29;2.53;;;0.98;;
27778;SDS011;30234;48.090;11.464;2022-08-02T00:25:30;1.55;;;0.95;;
27778;SDS011;30234;48.090;11.464;2022-08-02T00:29:31;1.17;;;0.93;;
27778;SDS011;30234;48.090;11.464;2022-08-02T00:33:32;2.00;;;1.38;;
27778;SDS011;30234;48.090;11.464;2022-08-02T00:37:36;2.63;;;0.70;;
27778;SDS011;30234;48.090;11.464;2022-08-02T00:41:49;1.17;;;1.02;;
27778;SDS011;30234;48.090;11.464;2022-08-02T00:45:51;1.80;;;1.20;;
27778;SDS011;30234;48.090;11.464;2022-08-02T00:49:52;1.30;;;1.20;;
27778;SDS011;30234;48.090;11.464;2022-08-02T00:53:53;1.38;;;1.23;;
27778;SDS011;30234;48.090;11.464;2022-08-02T00:57:54;1.10;;;1.00;;
27778;SDS011;30234;48.090;11.464;2022-08-02T01:01:55;0.80;;;0.73;;
27778;SDS011;30234;48.090;11.464;2022-08-02T01:05:55;0.95;;;0.90;;
27778;SDS011;30234;48.090;11.464;2022-08-02T01:09:56;1.48;;;1.05;;
27778;SDS011;30234;48.090;11.464;2022-08-02T01:13:58;1.58;;;1.10;;
27778;SDS011;30234;48.090;11.464;2022-08-02T01:18:30;0.95;;;0.95;;
27778;SDS011;30234;48.090;11.464;2022-08-02T01:31:33;1.42;;;1.02;;
27778;SDS011;30234;48.090;11.464;2022-08-02T01:35:51;1.23;;;1.05;;
27778;SDS011;30234;48.090;11.464;2022-08-02T01:40:00;1.92;;;1.23;;
27778;SDS011;30234;48.090;11.464;2022-08-02T01:44:07;1.23;;;1.08;;
27778;SDS011;30234;48.090;11.464;2022-08-02T01:48:10;1.15;;;1.08;;
27778;SDS011;30234;48.090;11.464;2022-08-02T01:52:14;1.20;;;1.10;;
27778;SDS011;30234;48.090;11.464;2022-08-02T01:56:22;1.30;;;1.20;;
27778;SDS011;30234;48.090;11.464;2022-08-02T02:00:23;2.45;;;1.10;;
27778;SDS011;30234;48.090;11.464;2022-08-02T02:04:29;1.48;;;1.13;;
27778;SDS011;30234;48.090;11.464;2022-08-02T02:08:36;1.38;;;0.95;;
27778;SDS011;30234;48.090;11.464;2022-08-02T02:12:39;2.13;;;1.45;;
27778;SDS011;30234;48.090;11.464;2022-08-02T02:16:43;1.45;;;1.10;;
27778;SDS011;30234;48.090;11.464;2022-08-02T02:20:47;1.55;;;1.30;;
27778;SDS011;30234;48.090;11.464;2022-08-02T02:24:48;1.40;;;1.10;;
27778;SDS011;30234;48.090;11.464;2022-08-02T02:28:49;2.15;;;1.50;;
27778;SDS011;30234;48.090;11.464;2022-08-02T02:32:52;2.42;;;1.45;;
27778;SDS011;30234;48.090;11.464;2022-08-02T02:36:58;2.05;;;1.10;;
27778;SDS011;30234;48.090;11.464;2022-08-02T02:41:03;3.85;;;1.50;;
27778;SDS011;30234;48.090;11.464;2022-08-02T02:45:07;7.32;;;1.60;;
27778;SDS011;30234;48.090;11.464;2022-08-02T02:49:10;4.10;;;1.52;;
27778;SDS011;30234;48.090;11.464;2022-08-02T02:53:11;1.92;;;1.70;;
27778;SDS011;30234;48.090;11.464;2022-08-02T02:57:15;3.38;;;1.60;;
27778;SDS011;30234;48.090;11.464;2022-08-02T03:01:17;1.88;;;1.35;;
27778;SDS011;30234;48.090;11.464;2022-08-02T03:05:28;1.77;;;1.67;;
27778;SDS011;30234;48.090;11.464;2022-08-02T03:09:28;6.50;;;1.70;;
27778;SDS011;30234;48.090;11.464;2022-08-02T03:13:29;1.40;;;1.25;;
27778;SDS011;30234;48.090;11.464;2022-08-02T03:17:41;1.75;;;1.33;;
27778;SDS011;30234;48.090;11.464;2022-08-02T03:21:44;1.45;;;1.17;;
27778;SDS011;30234;48.090;11.464;2022-08-02T03:25:47;2.65;;;1.38;;
27778;SDS011;30234;48.090;11.464;2022-08-02T03:29:48;2.28;;;1.45;;
27778;SDS011;30234;48.090;11.464;2022-08-02T03:33:48;1.10;;;1.00;;
27778;SDS011;30234;48.090;11.464;2022-08-02T03:37:49;1.67;;;1.50;;
27778;SDS011;30234;48.090;11.464;2022-08-02T03:41:53;2.75;;;1.38;;
27778;SDS011;30234;48.090;11.464;2022-08-02T03:45:54;1.33;;;1.23;;
27778;SDS011;30234;48.090;11.464;2022-08-02T03:49:56;1.20;;;1.02;;
27778;SDS011;30234;48.090;11.464;2022-08-02T03:53:57;2.08;;;1.52;;
27778;SDS011;30234;48.090;11.464;2022-08-02T03:57:58;3.72;;;1.77;;
27778;SDS011;30234;48.090;11.464;2022-08-02T04:01:59;2.78;;;1.48;;
27778;SDS011;30234;48.090;11.464;2022-08-02T04:06:00;2.33;;;1.67;;
27778;SDS011;30234;48.090;11.464;2022-08-02T04:10:00;2.28;;;1.88;;
27778;SDS011;30234;48.090;11.464;2022-08-02T04:14:02;2.03;;;1.60;;
27778;SDS011;30234;48.090;11.464;2022-08-02T04:18:06;1.98;;;1.77;;
27778;SDS011;30234;48.090;11.464;2022-08-02T04:22:10;1.50;;;1.40;;
27778;SDS011;30234;48.090;11.464;2022-08-02T04:26:17;4.03;;;1.73;;
27778;SDS011;30234;48.090;11.464;2022-08-02T04:30:20;2.38;;;1.38;;
27778;SDS011;30234;48.090;11.464;2022-08-02T04:34:21;1.85;;;1.20;;
27778;SDS011;30234;48.090;11.464;2022-08-02T04:38:22;3.38;;;1.60;;
27778;SDS011;30234;48.090;11.464;2022-08-02T04:42:24;2.17;;;1.70;;
27778;SDS011;30234;48.090;11.464;2022-08-02T04:46:25;1.67;;;1.52;;
27778;SDS011;30234;48.090;11.464;2022-08-02T04:50:26;1.85;;;1.23;;
27778;SDS011;30234;48.090;11.464;2022-08-02T04:54:27;3.30;;;1.48;;
27778;SDS011;30234;48.090;11.464;2022-08-02T04:58:27;1.60;;;1.50;;
27778;SDS011;30234;48.090;11.464;2022-08-02T05:02:28;2.17;;;1.40;;
27778;SDS011;30234;48.090;11.464;2022-08-02T05:06:29;1.77;;;1.30;;
27778;SDS011;30234;48.090;11.464;2022-08-02T05:10:31;1.60;;;1.50;;
27778;SDS011;30234;48.090;11.464;2022-08-02T05:14:32;1.80;;;1.15;;
27778;SDS011;30234;48.090;11.464;2022-08-02T05:18:32;3.55;;;1.35;;
27778;SDS011;30234;48.090;11.464;2022-08-02T05:22:33;2.63;;;1.00;;
27778;SDS011;30234;48.090;11.464;2022-08-02T05:26:34;1.65;;;1.10;;
27778;SDS011;30234;48.090;11.464;2022-08-02T05:30:35;1.85;;;1.10;;
27778;SDS011;30234;48.090;11.464;2022-08-02T05:34:36;1.42;;;1.10;;
27778;SDS011;30234;48.090;11.464;2022-08-02T05:38:37;1.15;;;1.05;;
27778;SDS011;30234;48.090;11.464;2022-08-02T05:42:38;0.90;;;0.90;;
27778;SDS011;30234;48.090;11.464;2022-08-02T05:46:43;1.80;;;0.95;;
27778;SDS011;30234;48.090;11.464;2022-08-02T05:50:44;1.20;;;1.00;;
27778;SDS011;30234;48.090;11.464;2022-08-02T05:59:17;1.15;;;0.98;;
27778;SDS011;30234;48.090;11.464;2022-08-02T06:03:49;0.85;;;0.85;;
27778;SDS011;30234;48.090;11.464;2022-08-02T06:07:52;1.47;;;0.80;;
27778;SDS011;30234;48.090;11.464;2022-08-02T06:11:57;1.05;;;0.95;;
27778;SDS011;30234;48.090;11.464;2022-08-02T06:15:59;1.48;;;1.00;;
27778;SDS011;30234;48.090;11.464;2022-08-02T06:20:02;1.05;;;0.95;;
27778;SDS011;30234;48.090;11.464;2022-08-02T06:24:04;1.13;;;0.73;;
27778;SDS011;30234;48.090;11.464;2022-08-02T06:28:08;2.22;;;0.85;;
27778;SDS011;30234;48.090;11.464;2022-08-02T06:32:09;1.25;;;1.02;;
27778;SDS011;30234;48.090;11.464;2022-08-02T06:40:44;2.08;;;0.90;;
27778;SDS011;30234;48.090;11.464;2022-08-02T06:45:01;1.73;;;0.85;;
27778;SDS011;30234;48.090;11.464;2022-08-02T06:49:02;1.35;;;0.80;;
27778;SDS011;30234;48.090;11.464;2022-08-02T06:53:13;0.88;;;0.88;;
27778;SDS011;30234;48.090;11.464;2022-08-02T06:58:17;0.80;;;0.80;;
27778;SDS011;30234;48.090;11.464;2022-08-02T07:02:07;1.05;;;0.90;;
27778;SDS011;30234;48.090;11.464;2022-08-02T07:06:17;1.63;;;1.52;;
27778;SDS011;30234;48.090;11.464;2022-08-02T07:10:44;1.77;;;1.30;;
27778;SDS011;30234;48.090;11.464;2022-08-02T07:14:48;3.33;;;1.10;;
27778;SDS011;30234;48.090;11.464;2022-08-02T07:18:59;1.60;;;1.10;;
27778;SDS011;30234;48.090;11.464;2022-08-02T07:23:54;2.58;;;0.98;;
27778;SDS011;30234;48.090;11.464;2022-08-02T07:39:07;1.80;;;1.05;;
27778;SDS011;30234;48.090;11.464;2022-08-02T07:44:04;2.95;;;0.65;;
27778;SDS011;30234;48.090;11.464;2022-08-02T07:59:02;2.40;;;0.88;;
27778;SDS011;30234;48.090;11.464;2022-08-02T08:18:20;1.38;;;0.70;;
27778;SDS011;30234;48.090;11.464;2022-08-02T08:23:01;0.90;;;0.90;;
27778;SDS011;30234;48.090;11.464;2022-08-02T08:46:55;0.70;;;0.70;;
27778;SDS011;30234;48.090;11.464;2022-08-02T08:51:11;1.95;;;0.73;;
27778;SDS011;30234;48.090;11.464;2022-08-02T09:01:37;1.80;;;0.85;;
27778;SDS011;30234;48.090;11.464;2022-08-02T09:10:46;0.90;;;0.90;;
27778;SDS011;30234;48.090;11.464;2022-08-02T09:30:49;2.38;;;0.95;;
27778;SDS011;30234;48.090;11.464;2022-08-02T09:35:46;1.50;;;0.80;;
27778;SDS011;30234;48.090;11.464;2022-08-02T09:58:52;1.90;;;0.95;;
27778;SDS011;30234;48.090;11.464;2022-08-02T10:03:35;0.80;;;0.80;;
27778;SDS011;30234;48.090;11.464;2022-08-02T10:07:36;1.52;;;1.05;;
27778;SDS011;30234;48.090;11.464;2022-08-02T10:11:37;1.05;;;0.88;;
27778;SDS011;30234;48.090;11.464;2022-08-02T10:16:50;3.25;;;0.63;;
27778;SDS011;30234;48.090;11.464;2022-08-02T10:26:25;3.13;;;0.75;;
27778;SDS011;30234;48.090;11.464;2022-08-02T10:41:00;0.75;;;0.70;;
27778;SDS011;30234;48.090;11.464;2022-08-02T10:54:56;1.30;;;1.02;;
27778;SDS011;30234;48.090;11.464;2022-08-02T11:09:44;1.00;;;0.90;;
27778;SDS011;30234;48.090;11.464;2022-08-02T11:29:39;1.42;;;0.80;;
27778;SDS011;30234;48.090;11.464;2022-08-02T11:33:44;0.52;;;0.52;;
27778;SDS011;30234;48.090;11.464;2022-08-02T11:37:49;0.95;;;0.70;;
27778;SDS011;30234;48.090;11.464;2022-08-02T11:52:09;1.60;;;1.02;;
27778;SDS011;30234;48.090;11.464;2022-08-02T11:56:10;1.42;;;0.90;;
27778;SDS011;30234;48.090;11.464;2022-08-02T12:00:36;1.08;;;0.80;;
27778;SDS011;30234;48.090;11.464;2022-08-02T12:13:40;0.70;;;0.70;;
27778;SDS011;30234;48.090;11.464;2022-08-02T12:17:45;1.17;;;0.90;;
27778;SDS011;30234;48.090;11.464;2022-08-02T12:37:28;0.77;;;0.77;;
27778;SDS011;30234;48.090;11.464;2022-08-02T12:51:30;0.80;;;0.80;;
27778;SDS011;30234;48.090;11.464;2022-08-02T12:55:45;2.35;;;0.75;;
27778;SDS011;30234;48.090;11.464;2022-08-02T13:00:05;0.70;;;0.70;;
27778;SDS011;30234;48.090;11.464;2022-08-02T13:04:08;1.48;;;0.70;;
27778;SDS011;30234;48.090;11.464;2022-08-02T13:08:09;0.82;;;0.82;;
27778;SDS011;30234;48.090;11.464;2022-08-02T13:12:18;2.55;;;0.80;;
27778;SDS011;30234;48.090;11.464;2022-08-02T13:16:19;0.60;;;0.60;;
27778;SDS011;30234;48.090;11.464;2022-08-02T13:20:26;0.60;;;0.60;;
27778;SDS011;30234;48.090;11.464;2022-08-02T13:24:28;0.50;;;0.50;;
27778;SDS011;30234;48.090;11.464;2022-08-02T13:28:28;1.08;;;0.73;;
27778;SDS011;30234;48.090;11.464;2022-08-02T13:32:30;0.85;;;0.85;;
27778;SDS011;30234;48.090;11.464;2022-08-02T13:36:32;0.50;;;0.50;;
27778;SDS011;30234;48.090;11.464;2022-08-02T13:40:34;0.50;;;0.50;;
27778;SDS011;30234;48.090;11.464;2022-08-02T13:44:58;0.77;;;0.77;;
27778;SDS011;30234;48.090;11.464;2022-08-02T13:53:25;1.05;;;0.77;;
27778;SDS011;30234;48.090;11.464;2022-08-02T13:57:26;0.88;;;0.50;;
27778;SDS011;30234;48.090;11.464;2022-08-02T14:01:28;0.82;;;0.82;;
27778;SDS011;30234;48.090;11.464;2022-08-02T14:05:28;0.60;;;0.60;;
27778;SDS011;30234;48.090;11.464;2022-08-02T14:09:32;1.20;;;0.90;;
27778;SDS011;30234;48.090;11.464;2022-08-02T14:13:34;1.05;;;0.88;;
27778;SDS011;30234;48.090;11.464;2022-08-02T14:17:35;1.48;;;0.60;;
27778;SDS011;30234;48.090;11.464;2022-08-02T14:21:36;0.85;;;0.55;;
27778;SDS011;30234;48.090;11.464;2022-08-02T14:25:37;0.60;;;0.60;;
27778;SDS011;30234;48.090;11.464;2022-08-02T14:29:38;0.70;;;0.70;;
27778;SDS011;30234;48.090;11.464;2022-08-02T14:33:39;0.75;;;0.70;;
27778;SDS011;30234;48.090;11.464;2022-08-02T14:37:43;0.73;;;0.52;;
27778;SDS011;30234;48.090;11.464;2022-08-02T14:41:49;0.68;;;0.68;;
27778;SDS011;30234;48.090;11.464;2022-08-02T14:45:50;0.88;;;0.73;;
27778;SDS011;30234;48.090;11.464;2022-08-02T14:49:54;0.68;;;0.60;;
27778;SDS011;30234;48.090;11.464;2022-08-02T14:53:56;1.45;;;0.60;;
27778;SDS011;30234;48.090;11.464;2022-08-02T14:59:11;1.52;;;0.60;;
27778;SDS011;30234;48.090;11.464;2022-08-02T15:03:12;1.05;;;0.77;;
27778;SDS011;30234;48.090;11.464;2022-08-02T15:07:23;0.70;;;0.70;;
27778;SDS011;30234;48.090;11.464;2022-08-02T15:11:25;1.13;;;0.85;;
27778;SDS011;30234;48.090;11.464;2022-08-02T15:15:26;0.60;;;0.60;;
27778;SDS011;30234;48.090;11.464;2022-08-02T15:19:28;1.00;;;0.80;;
27778;SDS011;30234;48.090;11.464;2022-08-02T15:23:29;0.60;;;0.60;;
27778;SDS011;30234;48.090;11.464;2022-08-02T15:27:30;1.95;;;0.60;;
27778;SDS011;30234;48.090;11.464;2022-08-02T15:31:31;0.55;;;0.55;;
27778;SDS011;30234;48.090;11.464;2022-08-02T15:35:32;1.50;;;0.57;;
27778;SDS011;30234;48.090;11.464;2022-08-02T15:39:33;0.68;;;0.68;;
27778;SDS011;30234;48.090;11.464;2022-08-02T15:43:34;0.60;;;0.60;;
27778;SDS011;30234;48.090;11.464;2022-08-02T15:47:35;0.95;;;0.70;;
27778;SDS011;30234;48.090;11.464;2022-08-02T15:51:36;0.70;;;0.68;;
27778;SDS011;30234;48.090;11.464;2022-08-02T15:55:39;2.08;;;0.55;;
27778;SDS011;30234;48.090;11.464;2022-08-02T15:59:40;0.93;;;0.50;;
27778;SDS011;30234;48.090;11.464;2022-08-02T16:03:41;0.60;;;0.60;;
27778;SDS011;30234;48.090;11.464;2022-08-02T16:07:43;0.70;;;0.55;;
27778;SDS011;30234;48.090;11.464;2022-08-02T16:11:47;1.13;;;0.55;;
27778;SDS011;30234;48.090;11.464;2022-08-02T16:15:48;1.15;;;0.50;;
27778;SDS011;30234;48.090;11.464;2022-08-02T16:19:49;1.05;;;0.75;;
27778;SDS011;30234;48.090;11.464;2022-08-02T16:23:53;1.88;;;0.73;;
27778;SDS011;30234;48.090;11.464;2022-08-02T16:27:55;1.73;;;0.80;;
27778;SDS011;30234;48.090;11.464;2022-08-02T16:32:03;2.25;;;0.70;;
27778;SDS011;30234;48.090;11.464;2022-08-02T16:36:05;0.52;;;0.52;;
27778;SDS011;30234;48.090;11.464;2022-08-02T16:40:06;0.57;;;0.57;;
27778;SDS011;30234;48.090;11.464;2022-08-02T16:44:07;0.50;;;0.50;;
27778;SDS011;30234;48.090;11.464;2022-08-02T16:48:09;2.10;;;0.90;;
27778;SDS011;30234;48.090;11.464;2022-08-02T16:52:10;0.70;;;0.60;;
27778;SDS011;30234;48.090;11.464;2022-08-02T16:56:11;1.10;;;0.55;;
27778;SDS011;30234;48.090;11.464;2022-08-02T17:00:15;0.68;;;0.60;;
27778;SDS011;30234;48.090;11.464;2022-08-02T17:04:16;0.73;;;0.73;;
27778;SDS011;30234;48.090;11.464;2022-08-02T17:08:17;1.15;;;0.60;;
27778;SDS011;30234;48.090;11.464;2022-08-02T17:12:18;0.98;;;0.60;;
27778;SDS011;30234;48.090;11.464;2022-08-02T17:16:19;0.57;;;0.52;;
27778;SDS011;30234;48.090;11.464;2022-08-02T17:20:20;4.88;;;0.63;;
27778;SDS011;30234;48.090;11.464;2022-08-02T17:24:22;1.35;;;0.40;;
27778;SDS011;30234;48.090;11.464;2022-08-02T17:28:23;1.23;;;1.13;;
27778;SDS011;30234;48.090;11.464;2022-08-02T17:32:23;0.70;;;0.60;;
27778;SDS011;30234;48.090;11.464;2022-08-02T17:36:27;1.70;;;0.75;;
27778;SDS011;30234;48.090;11.464;2022-08-02T17:40:28;0.70;;;0.70;;
27778;SDS011;30234;48.090;11.464;2022-08-02T17:44:31;0.65;;;0.63;;
27778;SDS011;30234;48.090;11.464;2022-08-02T17:48:32;2.47;;;0.85;;
27778;SDS011;30234;48.090;11.464;2022-08-02T17:52:52;0.60;;;0.60;;
27778;SDS011;30234;48.090;11.464;2022-08-02T17:56:53;0.73;;;0.70;;
27778;SDS011;30234;48.090;11.464;2022-08-02T18:00:54;0.88;;;0.70;;
27778;SDS011;30234;48.090;11.464;2022-08-02T18:04:55;0.63;;;0.60;;
27778;SDS011;30234;48.090;11.464;2022-08-02T18:08:57;1.02;;;0.95;;
27778;SDS011;30234;48.090;11.464;2022-08-02T18:13:00;2.47;;;0.88;;
27778;SDS011;30234;48.090;11.464;2022-08-02T18:17:01;1.30;;;0.82;;
27778;SDS011;30234;48.090;11.464;2022-08-02T18:21:04;1.10;;;0.90;;
27778;SDS011;30234;48.090;11.464;2022-08-02T18:25:05;2.15;;;0.80;;
27778;SDS011;30234;48.090;11.464;2022-08-02T18:29:07;1.00;;;0.90;;
27778;SDS011;30234;48.090;11.464;2022-08-02T18:33:11;1.17;;;0.80;;
27778;SDS011;30234;48.090;11.464;2022-08-02T18:37:12;2.53;;;0.95;;
27778;SDS011;30234;48.090;11.464;2022-08-02T18:41:13;1.65;;;0.95;;
27778;SDS011;30234;48.090;11.464;2022-08-02T18:45:13;0.60;;;0.60;;
27778;SDS011;30234;48.090;11.464;2022-08-02T18:49:20;0.52;;;0.52;;
27778;SDS011;30234;48.090;11.464;2022-08-02T18:53:22;0.98;;;0.57;;
27778;SDS011;30234;48.090;11.464;2022-08-02T18:57:23;0.60;;;0.60;;
27778;SDS011;30234;48.090;11.464;2022-08-02T19:01:24;4.22;;;1.08;;
27778;SDS011;30234;48.090;11.464;2022-08-02T19:05:25;0.60;;;0.60;;
27778;SDS011;30234;48.090;11.464;2022-08-02T19:09:26;1.65;;;0.82;;
27778;SDS011;30234;48.090;11.464;2022-08-02T19:13:27;2.97;;;0.80;;
27778;SDS011;30234;48.090;11.464;2022-08-02T19:17:28;0.80;;;0.68;;
27778;SDS011;30234;48.090;11.464;2022-08-02T19:21:29;0.77;;;0.65;;
27778;SDS011;30234;48.090;11.464;2022-08-02T19:25:30;1.20;;;0.55;;
27778;SDS011;30234;48.090;11.464;2022-08-02T19:29:31;1.08;;;0.80;;
27778;SDS011;30234;48.090;11.464;2022-08-02T19:33:31;2.03;;;0.98;;
27778;SDS011;30234;48.090;11.464;2022-08-02T19:37:32;0.73;;;0.73;;
27778;SDS011;30234;48.090;11.464;2022-08-02T19:41:34;3.38;;;0.98;;
27778;SDS011;30234;48.090;11.464;2022-08-02T19:45:35;2.75;;;1.20;;
27778;SDS011;30234;48.090;11.464;2022-08-02T19:49:36;0.90;;;0.90;;
27778;SDS011;30234;48.090;11.464;2022-08-02T19:53:37;3.70;;;0.82;;
27778;SDS011;30234;48.090;11.464;2022-08-02T19:57:38;1.38;;;0.88;;
27778;SDS011;30234;48.090;11.464;2022-08-02T20:01:41;1.27;;;1.10;;
27778;SDS011;30234;48.090;11.464;2022-08-02T20:05:43;8.20;;;3.28;;
27778;SDS011;30234;48.090;11.464;2022-08-02T20:09:44;7.95;;;2.92;;
27778;SDS011;30234;48.090;11.464;2022-08-02T20:13:44;3.40;;;2.03;;
27778;SDS011;30234;48.090;11.464;2022-08-02T20:17:46;4.97;;;4.07;;
27778;SDS011;30234;48.090;11.464;2022-08-02T20:21:47;2.05;;;1.65;;
27778;SDS011;30234;48.090;11.464;2022-08-02T20:25:51;3.30;;;1.08;;
27778;SDS011;30234;48.090;11.464;2022-08-02T20:29:53;1.02;;;0.93;;
27778;SDS011;30234;48.090;11.464;2022-08-02T20:33:54;2.95;;;0.80;;
27778;SDS011;30234;48.090;11.464;2022-08-02T20:37:54;4.93;;;0.85;;
27778;SDS011;30234;48.090;11.464;2022-08-02T20:41:55;1.10;;;1.00;;
27778;SDS011;30234;48.090;11.464;2022-08-02T20:45:56;2.45;;;0.80;;
27778;SDS011;30234;48.090;11.464;2022-08-02T20:49:57;0.70;;;0.70;;
27778;SDS011;30234;48.090;11.464;2022-08-02T20:54:17;4.30;;;1.23;;
27778;SDS011;30234;48.090;11.464;2022-08-02T20:58:18;1.00;;;0.90;;
27778;SDS011;30234;48.090;11.464;2022-08-02T21:02:19;1.05;;;0.57;;
27778;SDS011;30234;48.090;11.464;2022-08-02T21:06:20;1.00;;;0.90;;
27778;SDS011;30234;48.090;11.464;2022-08-02T21:10:20;1.73;;;0.80;;
27778;SDS011;30234;48.090;11.464;2022-08-02T21:14:21;0.88;;;0.80;;
27778;SDS011;30234;48.090;11.464;2022-08-02T21:18:22;3.88;;;0.90;;
27778;SDS011;30234;48.090;11.464;2022-08-02T21:22:23;2.92;;;1.25;;
27778;SDS011;30234;48.090;11.464;2022-08-02T21:26:23;0.85;;;0.85;;
27778;SDS011;30234;48.090;11.464;2022-08-02T21:30:24;4.07;;;1.20;;
27778;SDS011;30234;48.090;11.464;2022-08-02T21:34:25;3.60;;;1.38;;
27778;SDS011;30234;48.090;11.464;2022-08-02T21:38:27;1.00;;;0.90;;
27778;SDS011;30234;48.090;11.464;2022-08-02T21:42:27;1.05;;;0.95;;
27778;SDS011;30234;48.090;11.464;2022-08-02T21:46:28;1.02;;;0.77;;
27778;SDS011;30234;48.090;11.464;2022-08-02T21:50:29;0.80;;;0.80;;
27778;SDS011;30234;48.090;11.464;2022-08-02T21:54:29;2.97;;;0.82;;
27778;SDS011;30234;48.090;11.464;2022-08-02T21:58:30;1.70;;;1.20;;
27778;SDS011;30234;48.090;11.464;2022-08-02T22:02:31;1.60;;;0.80;;
27778;SDS011;30234;48.090;11.464;2022-08-02T22:06:32;0.95;;;0.88;;
27778;SDS011;30234;48.090;11.464;2022-08-02T22:10:33;1.38;;;0.82;;
27778;SDS011;30234;48.090;11.464;2022-08-02T22:14:54;2.30;;;1.00;;
27778;SDS011;30234;48.090;11.464;2022-08-02T22:18:55;0.73;;;0.73;;
27778;SDS011;30234;48.090;11.464;2022-08-02T22:22:57;0.70;;;0.70;;
27778;SDS011;30234;48.090;11.464;2022-08-02T22:26:57;2.58;;;0.80;;
27778;SDS011;30234;48.090;11.464;2022-08-02T22:30:58;0.80;;;0.70;;
27778;SDS011;30234;48.090;11.464;2022-08-02T22:35:03;2.20;;;1.00;;
27778;SDS011;30234;48.090;11.464;2022-08-02T22:39:05;2.30;;;0.85;;
27778;SDS011;30234;48.090;11.464;2022-08-02T22:43:09;1.35;;;0.90;;
27778;SDS011;30234;48.090;11.464;2022-08-02T22:47:09;1.08;;;0.88;;
27778;SDS011;30234;48.090;11.464;2022-08-02T22:51:11;1.52;;;0.88;;
27778;SDS011;30234;48.090;11.464;2022-08-02T22:55:12;2.67;;;1.23;;
27778;SDS011;30234;48.090;11.464;2022-08-02T22:59:13;1.30;;;1.20;;
27778;SDS011;30234;48.090;11.464;2022-08-02T23:03:14;2.35;;;1.00;;
27778;SDS011;30234;48.090;11.464;2022-08-02T23:07:15;1.40;;;0.90;;
27778;SDS011;30234;48.090;11.464;2022-08-02T23:11:16;1.40;;;0.93;;
27778;SDS011;30234;48.090;11.464;2022-08-02T23:15:17;1.75;;;0.90;;
27778;SDS011;30234;48.090;11.464;2022-08-02T23:19:17;1.33;;;1.23;;
27778;SDS011;30234;48.090;11.464;2022-08-02T23:23:37;6.07;;;0.80;;
27778;SDS011;30234;48.090;11.464;2022-08-02T23:27:37;3.35;;;1.08;;
27778;SDS011;30234;48.090;11.464;2022-08-02T23:31:38;1.02;;;0.85;;
27778;SDS011;30234;48.090;11.464;2022-08-02T23:35:39;1.33;;;0.88;;
27778;SDS011;30234;48.090;11.464;2022-08-02T23:39:40;0.82;;;0.77;;
27778;SDS011;30234;48.090;11.464;2022-08-02T23:43:41;1.17;;;0.90;;
27778;SDS011;30234;48.090;11.464;2022-08-02T23:47:42;7.13;;;1.13;;
27778;SDS011;30234;48.090;11.464;2022-08-02T23:51:43;1.15;;;0.90;;
27778;SDS011;30234;48.090;11.464;2022-08-02T23:55:44;2.65;;;0.68;;
27778;SDS011;30234;48.090;11.464;2022-08-02T23:59:44;1.17;;;0.98;;
